Time;durP1;ratioP1;P1;durP2;ratioP2;P2;SDS_P1;SDS_P2;PMS_P1;PMS_P2;Temp;Humidity;BMP_temperature;BMP_pressure;BME280_temperature;BME280_humidity;BME280_pressure;Samples;Min_cycle;Max_cycle;Signal;HPM_P1;HPM_P2
2023/12/15 00:01:27;;;;;;;0.82;0.82;;;;;;;6.62;79.45;94726.69;5080730;28;20216;-70
2023/12/15 00:03:55;;;;;;;0.90;0.90;;;;;;;6.61;78.97;94728.63;5098418;28;20188;-70
2023/12/15 00:06:21;;;;;;;0.85;0.85;;;;;;;6.61;79.25;94728.63;5080225;28;20238;-70
2023/12/15 00:08:51;;;;;;;1.20;1.10;;;;;;;6.62;79.41;94727.47;5080860;28;20254;-70
2023/12/15 00:11:19;;;;;;;1.00;1.00;;;;;;;6.63;79.11;94729.06;5098535;28;20205;-70
2023/12/15 00:13:47;;;;;;;1.20;1.10;;;;;;;6.64;79.09;94732.59;5080872;28;20269;-70
2023/12/15 00:16:14;;;;;;;1.13;1.10;;;;;;;6.65;79.49;94734.22;5096059;28;20236;-70
2023/12/15 00:18:41;;;;;;;1.10;1.10;;;;;;;6.66;79.41;94735.81;5098094;28;20361;-70
2023/12/15 00:21:08;;;;;;;1.00;1.00;;;;;;;6.65;79.57;94740.50;5080394;28;20250;-70
2023/12/15 00:23:35;;;;;;;1.00;1.00;;;;;;;6.67;79.92;94751.91;5081065;28;20233;-70
2023/12/15 00:26:05;;;;;;;0.90;0.90;;;;;;;6.68;79.97;94752.72;5080257;28;20529;-70
2023/12/15 00:28:32;;;;;;;0.90;0.90;;;;;;;6.68;79.83;94760.94;5080105;28;20193;-70
2023/12/15 00:30:59;;;;;;;0.90;0.90;;;;;;;6.68;79.22;94755.47;5097961;28;20219;-70
2023/12/15 00:33:29;;;;;;;0.80;0.80;;;;;;;6.68;79.12;94755.47;5096759;28;20196;-70
2023/12/15 00:35:57;;;;;;;0.88;0.88;;;;;;;6.70;78.57;94753.19;5097794;28;20180;-70
2023/12/15 00:38:24;;;;;;;0.80;0.80;;;;;;;6.71;79.13;94750.09;5080851;28;20327;-70
2023/12/15 00:40:51;;;;;;;0.95;0.95;;;;;;;6.73;78.79;94758.00;5097364;28;20240;-70
2023/12/15 00:43:22;;;;;;;0.90;0.90;;;;;;;6.71;78.91;94758.31;5097753;28;20188;-70
2023/12/15 00:45:51;;;;;;;1.00;1.00;;;;;;;6.68;79.17;94764.50;5079905;28;20253;-70
2023/12/15 00:48:18;;;;;;;0.82;0.82;;;;;;;6.69;79.13;94770.78;5080674;28;20295;-70
2023/12/15 00:50:45;;;;;;;0.80;0.80;;;;;;;6.70;79.69;94781.41;5097157;28;20196;-70
2023/12/15 00:53:12;;;;;;;0.80;0.80;;;;;;;6.70;79.81;94778.66;5097479;28;20241;-70
2023/12/15 00:55:40;;;;;;;0.80;0.80;;;;;;;6.70;79.53;94786.88;5097431;28;20227;-70
2023/12/15 00:58:06;;;;;;;0.80;0.80;;;;;;;6.69;79.95;94785.28;5097010;28;20697;-70
2023/12/15 01:00:37;;;;;;;0.80;0.80;;;;;;;6.69;79.50;94787.22;5097527;28;20204;-70
2023/12/15 01:03:04;;;;;;;0.80;0.80;;;;;;;6.70;79.56;94789.63;5097272;28;20238;-70
2023/12/15 01:05:31;;;;;;;0.80;0.80;;;;;;;6.72;80.08;94800.28;5079597;28;20199;-70
2023/12/15 01:07:58;;;;;;;0.80;0.80;;;;;;;6.72;80.05;94797.53;5097119;28;20200;-70
2023/12/15 01:10:26;;;;;;;0.85;0.85;;;;;;;6.72;79.45;94789.31;5096829;28;20597;-70
2023/12/15 01:12:53;;;;;;;0.80;0.80;;;;;;;6.71;79.74;94795.91;5080034;28;20315;-70
2023/12/15 01:15:20;;;;;;;0.82;0.82;;;;;;;6.70;80.29;94781.41;5068524;28;20607;-70
2023/12/15 01:17:49;;;;;;;0.80;0.80;;;;;;;6.68;79.76;94796.56;5076783;28;20189;-70
2023/12/15 01:20:17;;;;;;;1.10;1.02;;;;;;;6.68;80.19;94802.03;5077012;28;20201;-70
2023/12/15 01:22:44;;;;;;;0.90;0.90;;;;;;;6.68;80.54;94796.56;5077388;28;20181;-70
2023/12/15 01:25:11;;;;;;;0.80;0.80;;;;;;;6.67;80.14;94800.44;5076309;28;20213;-70
2023/12/15 01:27:39;;;;;;;0.80;0.80;;;;;;;6.68;80.31;94807.53;5059113;28;20242;-70
2023/12/15 01:30:07;;;;;;;0.77;0.77;;;;;;;6.67;80.30;94814.94;5076771;28;20224;-70
2023/12/15 01:32:34;;;;;;;0.70;0.70;;;;;;;6.64;79.98;94807.41;5059245;28;20228;-70
2023/12/15 01:35:06;;;;;;;0.75;0.75;;;;;;;6.65;80.06;94813.72;5059235;28;20229;-70
2023/12/15 01:37:33;;;;;;;0.82;0.82;;;;;;;6.64;80.07;94801.91;5058849;28;20251;-70
2023/12/15 01:40:00;;;;;;;0.80;0.80;;;;;;;6.63;80.31;94811.28;5058758;28;20220;-70
2023/12/15 01:42:27;;;;;;;0.70;0.70;;;;;;;6.67;80.56;94817.69;5059478;28;20228;-70
2023/12/15 01:44:54;;;;;;;0.70;0.70;;;;;;;6.66;80.83;94815.31;5075523;28;20215;-70
2023/12/15 01:47:24;;;;;;;0.80;0.80;;;;;;;6.67;80.67;94814.16;5075919;28;20205;-70
2023/12/15 01:49:52;;;;;;;0.80;0.80;;;;;;;6.67;80.71;94816.91;5058276;28;20197;-70
2023/12/15 01:52:21;;;;;;;0.80;0.80;;;;;;;6.68;80.61;94824.81;5076417;28;20185;-70
2023/12/15 01:54:48;;;;;;;0.80;0.80;;;;;;;6.70;80.76;94818.97;5076307;28;20235;-70
2023/12/15 01:57:15;;;;;;;0.90;0.90;;;;;;;6.68;81.19;94815.75;5076054;28;20213;-70
2023/12/15 01:59:43;;;;;;;0.80;0.80;;;;;;;6.67;80.94;94812.22;5076017;28;20276;-70
2023/12/15 02:02:10;;;;;;;1.00;1.00;;;;;;;6.63;81.13;94808.53;5076185;28;20185;-70
2023/12/15 02:04:37;;;;;;;0.90;0.90;;;;;;;6.63;81.35;94818.69;5075841;28;20262;-70
2023/12/15 02:07:04;;;;;;;0.73;0.73;;;;;;;6.65;80.93;94819.19;5076523;28;20263;-70
2023/12/15 02:09:33;;;;;;;0.70;0.70;;;;;;;6.64;81.32;94817.56;5058770;28;20225;-70
2023/12/15 02:12:01;;;;;;;0.80;0.80;;;;;;;6.64;81.24;94826.59;5075615;28;20232;-70
2023/12/15 02:14:29;;;;;;;0.77;0.77;;;;;;;6.65;81.69;94824.66;5077052;28;20260;-70
2023/12/15 02:16:56;;;;;;;0.90;0.90;;;;;;;6.65;81.82;94827.41;5077831;28;20204;-70
2023/12/15 02:19:23;;;;;;;0.85;0.85;;;;;;;6.63;81.68;94826.94;5095493;28;20668;-70
2023/12/15 02:21:51;;;;;;;0.82;0.82;;;;;;;6.60;81.64;94839.34;5078248;28;20272;-70
2023/12/15 02:24:20;;;;;;;0.90;0.90;;;;;;;6.59;81.70;94835.00;5095684;28;20208;-70
2023/12/15 02:26:47;;;;;;;0.90;0.90;;;;;;;6.60;81.94;94835.81;5078500;28;20253;-70
2023/12/15 02:29:14;;;;;;;0.80;0.80;;;;;;;6.61;82.27;94835.50;5096041;28;20556;-70
2023/12/15 02:31:41;;;;;;;1.05;1.02;;;;;;;6.61;82.22;94842.88;5095667;28;20184;-70
2023/12/15 02:34:10;;;;;;;1.15;1.10;;;;;;;6.59;82.17;94843.22;5077629;28;20196;-70
2023/12/15 02:36:37;;;;;;;1.23;1.10;;;;;;;6.62;82.32;94845.31;5095870;28;20185;-70
2023/12/15 02:39:04;;;;;;;1.30;1.30;;;;;;;6.62;81.75;94847.25;5095617;28;20184;-70
2023/12/15 02:41:33;;;;;;;1.20;1.20;;;;;;;6.58;81.40;94860.81;5077719;28;20234;-70
2023/12/15 02:44:00;;;;;;;1.40;1.30;;;;;;;6.56;81.56;94860.34;5095572;28;20212;-70
2023/12/15 02:46:27;;;;;;;1.63;1.52;;;;;;;6.56;81.73;94863.06;5095223;28;20608;-70
2023/12/15 02:48:54;;;;;;;1.65;1.55;;;;;;;6.59;81.81;94859.66;5077741;28;20257;-70
2023/12/15 02:51:28;;;;;;;1.73;1.63;;;;;;;6.60;82.07;94863.22;5078482;28;20196;-70
2023/12/15 02:53:56;;;;;;;2.05;1.95;;;;;;;6.59;81.46;94864.34;5078148;28;20235;-70
2023/12/15 02:56:22;;;;;;;2.00;1.90;;;;;;;6.60;81.69;94869.50;5094523;28;20185;-70
2023/12/15 02:58:52;;;;;;;2.08;1.98;;;;;;;6.61;81.63;94870.28;5095411;28;20547;-70
2023/12/15 03:01:19;;;;;;;2.20;2.10;;;;;;;6.61;81.42;94867.56;5094985;28;20280;-70
2023/12/15 03:03:47;;;;;;;2.15;2.05;;;;;;;6.59;81.57;94875.31;5077574;28;20253;-70
2023/12/15 03:06:14;;;;;;;2.45;2.33;;;;;;;6.59;81.70;94873.38;5095255;28;20188;-70
2023/12/15 03:08:41;;;;;;;2.40;2.30;;;;;;;6.58;82.06;94880.00;5077258;28;20219;-70
2023/12/15 03:11:09;;;;;;;2.58;2.47;;;;;;;6.60;81.98;94882.41;5077502;28;20266;-70
2023/12/15 03:13:36;;;;;;;2.92;2.72;;;;;;;6.59;81.95;94876.13;5077664;28;20212;-69
2023/12/15 03:16:10;;;;;;;3.00;2.80;;;;;;;6.61;82.36;94881.25;5060395;28;20254;-69
2023/12/15 03:18:37;;;;;;;3.10;2.90;;;;;;;6.57;81.92;94883.06;5057655;28;20211;-70
2023/12/15 03:21:05;;;;;;;3.53;3.33;;;;;;;6.57;82.05;94897.56;5056929;28;20255;-70
2023/12/15 03:23:32;;;;;;;3.80;3.60;;;;;;;6.55;81.76;94888.88;5074513;28;20238;-70
2023/12/15 03:26:00;;;;;;;4.13;3.83;;;;;;;6.57;81.58;94885.78;5057558;28;20204;-70
2023/12/15 03:28:27;;;;;;;3.90;3.70;;;;;;;6.58;81.52;94890.97;5074648;28;20235;-70
2023/12/15 03:30:54;;;;;;;4.53;4.22;;;;;;;6.57;81.48;94899.50;5057735;28;20201;-70
2023/12/15 03:33:25;;;;;;;4.50;4.20;;;;;;;6.59;81.13;94899.97;5074541;28;20686;-70
2023/12/15 03:35:52;;;;;;;4.15;3.88;;;;;;;6.60;81.30;94898.84;5057263;28;20197;-70
2023/12/15 03:38:19;;;;;;;4.55;4.30;;;;;;;6.60;80.87;94902.38;5075158;28;20251;-70
2023/12/15 03:40:46;;;;;;;4.72;4.43;;;;;;;6.60;80.96;94905.13;5074757;28;20255;-70
2023/12/15 03:43:13;;;;;;;4.85;4.55;;;;;;;6.58;80.62;94898.38;5074683;28;20220;-70
2023/12/15 03:45:41;;;;;;;4.40;4.10;;;;;;;6.60;81.03;94904.31;5074347;28;20181;-70
2023/12/15 03:48:08;;;;;;;4.80;4.40;;;;;;;6.61;80.71;94905.91;5074655;28;20533;-70
2023/12/15 03:50:36;;;;;;;4.82;4.53;;;;;;;6.61;80.53;94906.75;5057014;28;20197;-70
2023/12/15 03:53:03;;;;;;;5.00;4.70;;;;;;;6.60;80.83;94915.28;5057518;28;20220;-70
2023/12/15 03:55:30;;;;;;;5.40;5.00;;;;;;;6.61;80.98;94908.66;5057034;28;20213;-70
2023/12/15 03:57:57;;;;;;;5.60;5.20;;;;;;;6.61;80.87;94909.47;5074665;28;20197;-70
2023/12/15 04:00:23;;;;;;;5.82;5.43;;;;;;;6.62;80.51;94908.34;5074577;28;20221;-70
2023/12/15 04:02:50;;;;;;;6.00;5.60;;;;;;;6.62;80.59;94919.31;5074309;28;20177;-70
2023/12/15 04:05:18;;;;;;;6.20;5.70;;;;;;;6.63;80.57;94920.91;5074852;28;20182;-70
2023/12/15 04:07:46;;;;;;;6.57;6.07;;;;;;;6.63;80.54;94917.38;5075325;28;20229;-70
2023/12/15 04:10:13;;;;;;;6.93;6.43;;;;;;;6.64;80.69;94918.97;5078280;28;20181;-70
2023/12/15 04:12:41;;;;;;;5.63;5.22;;;;;;;6.63;80.08;94923.66;5078211;28;20621;-70
2023/12/15 04:15:09;;;;;;;5.93;5.53;;;;;;;6.63;80.61;94922.84;5085386;28;20232;-70
2023/12/15 04:17:39;;;;;;;6.13;5.63;;;;;;;6.62;80.26;94915.75;5098150;28;20505;-70
2023/12/15 04:20:09;;;;;;;6.68;6.20;;;;;;;6.63;80.45;94914.63;5097771;28;20193;-70
2023/12/15 04:22:36;;;;;;;7.88;7.28;;;;;;;6.64;80.73;94919.75;5097791;28;20686;-70
2023/12/15 04:25:06;;;;;;;6.97;6.40;;;;;;;6.64;80.08;94930.72;5098112;28;20528;-70
2023/12/15 04:27:33;;;;;;;7.38;6.88;;;;;;;6.64;80.35;94930.72;5080505;28;20590;-70
2023/12/15 04:30:00;;;;;;;6.50;6.10;;;;;;;6.66;80.48;94927.66;5080656;28;20189;-70
2023/12/15 04:32:27;;;;;;;5.80;5.40;;;;;;;6.66;80.71;94931.22;5080110;28;20203;-70
2023/12/15 04:34:53;;;;;;;6.05;5.65;;;;;;;6.68;80.06;94930.84;5097885;28;20266;-70
2023/12/15 04:37:20;;;;;;;6.00;5.60;;;;;;;6.66;80.48;94933.16;5097798;28;20185;-70
2023/12/15 04:39:47;;;;;;;7.10;6.40;;;;;;;6.65;80.13;94935.09;5097745;28;20189;-70
2023/12/15 04:42:15;;;;;;;6.32;5.82;;;;;;;6.66;80.44;94939.44;5097606;28;20208;-70
2023/12/15 04:44:42;;;;;;;5.88;5.47;;;;;;;6.66;80.57;94944.09;5097631;28;20195;-70
2023/12/15 04:47:09;;;;;;;6.25;5.75;;;;;;;6.65;80.63;94956.22;5097609;28;20188;-70
2023/12/15 04:49:36;;;;;;;5.47;5.07;;;;;;;6.63;80.20;94961.22;5079844;28;20211;-70
2023/12/15 04:52:03;;;;;;;5.40;5.00;;;;;;;6.64;80.08;94966.34;5097902;28;20176;-70
2023/12/15 04:54:30;;;;;;;5.70;5.30;;;;;;;6.65;80.38;94962.50;5080529;28;20207;-70
2023/12/15 04:56:57;;;;;;;5.65;5.25;;;;;;;6.67;80.05;94968.44;5097034;28;20204;-70
2023/12/15 04:59:25;;;;;;;5.70;5.30;;;;;;;6.67;80.46;94965.69;5097456;28;20192;-70
2023/12/15 05:01:52;;;;;;;5.57;5.18;;;;;;;6.68;80.02;94966.50;5079645;28;20311;-70
2023/12/15 05:04:20;;;;;;;5.45;5.05;;;;;;;6.66;79.74;94972.31;5079462;28;20554;-70
2023/12/15 05:06:47;;;;;;;5.20;4.80;;;;;;;6.66;79.80;94972.31;5079386;28;20495;-69
2023/12/15 05:09:14;;;;;;;4.97;4.57;;;;;;;6.65;79.27;94970.72;5079209;28;20211;-69
2023/12/15 05:11:41;;;;;;;5.07;4.68;;;;;;;6.64;79.34;94971.84;5096894;28;20199;-69
2023/12/15 05:14:08;;;;;;;5.50;5.10;;;;;;;6.64;79.43;94968.28;5079789;28;20205;-69
2023/12/15 05:16:36;;;;;;;5.20;4.80;;;;;;;6.64;79.43;94974.56;5080095;28;20204;-69
2023/12/15 05:19:03;;;;;;;5.22;4.85;;;;;;;6.64;79.25;94973.78;5096442;28;20276;-71
2023/12/15 05:21:30;;;;;;;5.07;4.68;;;;;;;6.63;79.00;94981.19;5078985;28;20281;-71
2023/12/15 05:23:58;;;;;;;4.97;4.60;;;;;;;6.63;78.61;94981.19;5096588;28;20521;-71
2023/12/15 05:26:25;;;;;;;4.90;4.57;;;;;;;6.61;78.65;94988.13;5096621;28;20279;-71
2023/12/15 05:28:52;;;;;;;4.88;4.55;;;;;;;6.62;78.26;94987.81;5079758;28;20189;-70
2023/12/15 05:31:19;;;;;;;4.60;4.30;;;;;;;6.63;78.83;94994.09;5079368;28;20624;-71
2023/12/15 05:33:47;;;;;;;5.05;4.55;;;;;;;6.62;78.64;95007.00;5096791;28;20509;-69
2023/12/15 05:36:20;;;;;;;4.88;4.45;;;;;;;6.63;78.57;95005.84;5096288;28;20188;-69
2023/12/15 05:38:52;;;;;;;5.07;4.68;;;;;;;6.63;78.95;95008.59;5096596;28;20188;-68
2023/12/15 05:41:19;;;;;;;5.20;4.80;;;;;;;6.63;78.94;95011.34;5096188;28;20604;-71
2023/12/15 05:43:46;;;;;;;5.80;5.40;;;;;;;6.63;78.68;95013.28;5078964;28;20203;-71
2023/12/15 05:46:14;;;;;;;5.57;5.18;;;;;;;6.61;78.58;95019.09;5077977;28;20200;-70
2023/12/15 05:48:41;;;;;;;5.80;5.40;;;;;;;6.60;77.99;95022.16;5078725;28;20301;-71
2023/12/15 05:51:12;;;;;;;5.78;5.38;;;;;;;6.59;78.50;95015.06;5096685;28;20180;-71
2023/12/15 05:53:39;;;;;;;5.78;5.30;;;;;;;6.60;78.64;95017.47;5096425;28;20204;-71
2023/12/15 05:56:07;;;;;;;6.57;6.03;;;;;;;6.60;78.06;95011.19;5079293;28;20192;-70
2023/12/15 05:58:34;;;;;;;5.97;5.47;;;;;;;6.61;78.31;95021.00;5078911;28;20204;-70
2023/12/15 06:01:01;;;;;;;6.82;6.13;;;;;;;6.66;78.46;95020.84;5078689;28;20216;-69
2023/12/15 06:03:28;;;;;;;6.93;6.22;;;;;;;6.77;78.32;95026.78;5077557;28;20638;-70
2023/12/15 06:05:55;;;;;;;7.07;6.47;;;;;;;6.73;77.84;95035.66;5079168;28;20210;-70
2023/12/15 06:08:23;;;;;;;6.50;6.00;;;;;;;6.68;77.30;95026.78;5078874;28;20204;-70
2023/12/15 06:10:50;;;;;;;6.03;5.53;;;;;;;6.63;77.87;95022.31;5095978;28;20196;-70
2023/12/15 06:13:20;;;;;;;6.13;5.63;;;;;;;6.62;78.00;95034.41;5078151;28;20214;-70
2023/12/15 06:15:47;;;;;;;5.70;5.30;;;;;;;6.60;77.81;95036.66;5062005;28;20358;-68
2023/12/15 06:18:15;;;;;;;5.95;5.47;;;;;;;6.58;77.79;95038.94;5058494;28;20197;-69
2023/12/15 06:20:42;;;;;;;6.07;5.57;;;;;;;6.55;78.23;95036.06;5057847;28;20193;-70
2023/12/15 06:23:09;;;;;;;6.07;5.68;;;;;;;6.55;78.08;95049.75;5075669;28;20195;-70
2023/12/15 06:25:37;;;;;;;5.70;5.30;;;;;;;6.49;78.19;95044.44;5075695;28;20193;-69
2023/12/15 06:28:04;;;;;;;6.10;5.60;;;;;;;6.49;78.79;95054.59;5058944;28;20523;-71
2023/12/15 06:30:32;;;;;;;5.68;5.28;;;;;;;6.49;78.63;95054.59;5057498;28;20205;-71
2023/12/15 06:32:59;;;;;;;6.10;5.70;;;;;;;6.49;78.81;95063.63;5075460;28;20696;-70
2023/12/15 06:35:26;;;;;;;6.55;6.05;;;;;;;6.48;79.12;95064.75;5058473;28;20209;-70
2023/12/15 06:37:52;;;;;;;6.03;5.63;;;;;;;6.47;79.79;95062.34;5058733;28;20198;-70
2023/12/15 06:40:19;;;;;;;6.13;5.72;;;;;;;6.46;79.92;95067.03;5058966;28;20208;-70
2023/12/15 06:42:48;;;;;;;6.20;5.70;;;;;;;6.44;79.88;95072.03;5075405;28;20220;-70
2023/12/15 06:45:15;;;;;;;6.40;5.90;;;;;;;6.43;80.33;95067.69;5075063;28;20191;-70
2023/12/15 06:47:42;;;;;;;6.57;6.07;;;;;;;6.42;80.90;95066.03;5075474;28;20174;-70
2023/12/15 06:50:09;;;;;;;6.32;5.80;;;;;;;6.41;80.87;95066.38;5075176;28;20594;-70
2023/12/15 06:52:36;;;;;;;7.20;6.60;;;;;;;6.39;81.45;95080.44;5057488;28;20219;-71
2023/12/15 06:55:04;;;;;;;6.57;6.07;;;;;;;6.42;81.74;95076.22;5058134;28;20189;-69
2023/12/15 06:57:31;;;;;;;7.28;6.72;;;;;;;6.41;81.90;95091.84;5058142;28;20193;-69
2023/12/15 06:59:59;;;;;;;8.13;7.50;;;;;;;6.38;82.08;95094.44;5074173;28;20201;-70
2023/12/15 07:02:26;;;;;;;8.82;8.13;;;;;;;6.36;82.10;95085.75;5058213;28;20216;-70
2023/12/15 07:04:53;;;;;;;9.57;8.80;;;;;;;6.35;82.20;95098.63;5075419;28;20198;-70
2023/12/15 07:07:20;;;;;;;10.27;9.38;;;;;;;6.34;82.21;95102.50;5075286;28;20486;-69
2023/12/15 07:09:47;;;;;;;11.45;10.55;;;;;;;6.35;82.54;95117.00;5075108;28;20188;-70
2023/12/15 07:12:13;;;;;;;9.32;8.52;;;;;;;6.33;82.38;95111.84;5058090;28;20197;-70
2023/12/15 07:14:41;;;;;;;9.20;8.40;;;;;;;6.33;82.83;95119.25;5057888;28;20233;-70
2023/12/15 07:17:12;;;;;;;9.30;8.60;;;;;;;6.32;82.52;95118.47;5058356;28;20193;-69
2023/12/15 07:19:38;;;;;;;9.43;8.73;;;;;;;6.31;82.84;95111.34;5075304;28;20275;-69
2023/12/15 07:22:05;;;;;;;9.05;8.23;;;;;;;6.27;82.85;95113.94;5075434;28;20209;-69
2023/12/15 07:24:34;;;;;;;9.55;8.77;;;;;;;6.30;82.85;95117.19;5074234;28;20218;-69
2023/12/15 07:27:00;;;;;;;8.75;8.05;;;;;;;6.30;83.21;95108.94;5074814;28;20182;-68
2023/12/15 07:29:28;;;;;;;8.73;8.02;;;;;;;6.31;83.03;95105.88;5056821;28;20295;-71
2023/12/15 07:31:55;;;;;;;8.27;7.57;;;;;;;6.30;83.55;95115.22;5075569;28;20196;-71
2023/12/15 07:34:24;;;;;;;8.43;7.82;;;;;;;6.29;83.32;95127.34;5075293;28;20205;-72
2023/12/15 07:36:50;;;;;;;9.32;8.63;;;;;;;6.25;83.51;95134.59;5075369;28;20227;-71
2023/12/15 07:39:21;;;;;;;9.30;8.50;;;;;;;6.25;83.88;95131.84;5074993;28;20197;-70
2023/12/15 07:41:48;;;;;;;9.48;8.65;;;;;;;6.26;83.92;95127.97;5074626;28;20220;-70
2023/12/15 07:44:15;;;;;;;9.40;8.52;;;;;;;6.25;84.09;95135.38;5061743;28;20218;-71
2023/12/15 07:46:44;;;;;;;15.27;13.88;;;;;;;6.27;83.56;95146.81;5060995;28;20520;-70
2023/12/15 07:49:11;;;;;;;11.18;10.20;;;;;;;6.29;83.85;95141.03;5061458;28;20228;-71
2023/12/15 07:51:40;;;;;;;9.80;9.00;;;;;;;6.30;83.67;95150.84;5061104;28;20188;-69
2023/12/15 07:54:07;;;;;;;8.85;8.25;;;;;;;6.29;83.64;95154.72;5078853;28;20258;-69
2023/12/15 07:56:35;;;;;;;9.40;8.70;;;;;;;6.31;83.78;95157.13;5078275;28;20201;-69
2023/12/15 07:59:02;;;;;;;22.45;20.02;;;;;;;6.31;83.93;95162.59;5061287;28;20205;-72
2023/12/15 08:01:30;;;;;;;10.02;9.23;;;;;;;6.30;83.97;95161.00;5061671;28;20239;-71
2023/12/15 08:03:56;;;;;;;9.07;8.40;;;;;;;6.30;84.17;95169.22;5078011;28;20197;-70
2023/12/15 08:06:23;;;;;;;8.40;7.80;;;;;;;6.30;84.17;95175.50;5078289;28;20225;-70
2023/12/15 08:08:55;;;;;;;8.43;7.78;;;;;;;6.32;83.84;95180.63;5060432;28;20205;-70
2023/12/15 08:11:22;;;;;;;8.70;8.00;;;;;;;6.32;83.67;95186.13;5060989;28;20255;-70
2023/12/15 08:13:49;;;;;;;8.40;7.70;;;;;;;6.34;83.83;95187.41;5078788;28;20208;-70
2023/12/15 08:16:16;;;;;;;10.20;9.30;;;;;;;6.36;83.32;95192.59;5094711;28;20255;-70
2023/12/15 08:18:43;;;;;;;9.50;8.73;;;;;;;6.36;83.37;95200.81;5080729;28;20204;-72
2023/12/15 08:21:11;;;;;;;8.57;7.97;;;;;;;6.34;82.78;95198.38;5098335;28;20184;-69
2023/12/15 08:23:38;;;;;;;10.10;9.10;;;;;;;6.36;83.13;95192.59;5098350;28;20185;-69
2023/12/15 08:26:07;;;;;;;9.38;8.57;;;;;;;6.37;83.34;95192.25;5097903;28;20188;-71
2023/12/15 08:28:34;;;;;;;8.30;7.60;;;;;;;6.37;82.67;95192.25;5098174;28;20220;-71
2023/12/15 08:31:02;;;;;;;9.55;8.75;;;;;;;6.42;82.86;95197.56;5080601;28;20200;-72
2023/12/15 08:33:29;;;;;;;10.05;9.25;;;;;;;6.41;82.84;95195.16;5080455;28;20227;-70
2023/12/15 08:35:55;;;;;;;13.48;12.35;;;;;;;6.41;82.75;95200.63;5098240;28;20189;-70
2023/12/15 08:38:24;;;;;;;9.75;8.95;;;;;;;6.39;82.27;95200.13;5098043;28;20224;-70
2023/12/15 08:40:52;;;;;;;10.48;9.68;;;;;;;6.37;82.36;95200.47;5080625;28;20185;-71
2023/12/15 08:43:20;;;;;;;9.93;9.13;;;;;;;6.40;82.81;95210.00;5080829;28;20208;-70
2023/12/15 08:45:49;;;;;;;10.07;9.27;;;;;;;6.40;82.51;95199.84;5079748;28;20204;-70
2023/12/15 08:48:16;;;;;;;10.07;9.27;;;;;;;6.40;82.62;95202.56;5097879;28;20216;-70
2023/12/15 08:50:43;;;;;;;8.52;7.70;;;;;;;6.41;82.41;95197.91;5097919;28;20195;-70
2023/12/15 08:53:12;;;;;;;7.88;7.28;;;;;;;6.42;82.61;95204.97;5097702;28;20195;-70
2023/12/15 08:55:38;;;;;;;8.90;8.30;;;;;;;6.41;82.25;95206.91;5078872;28;20303;-70
2023/12/15 08:58:05;;;;;;;9.43;8.73;;;;;;;6.40;82.10;95212.72;5080372;28;20588;-70
2023/12/15 09:00:33;;;;;;;8.07;7.47;;;;;;;6.36;82.83;95212.56;5097467;28;20491;-70
2023/12/15 09:03:00;;;;;;;8.90;8.30;;;;;;;6.36;83.06;95214.50;5097889;28;20212;-69
2023/12/15 09:05:27;;;;;;;8.35;7.65;;;;;;;6.35;83.05;95215.63;5080248;28;20216;-71
2023/12/15 09:07:54;;;;;;;9.23;8.52;;;;;;;6.34;82.60;95209.34;5097395;28;20195;-71
2023/12/15 09:10:22;;;;;;;8.98;8.25;;;;;;;6.34;82.92;95209.34;5098085;28;20211;-68
2023/12/15 09:12:49;;;;;;;10.73;9.70;;;;;;;6.35;82.98;95208.19;5097368;28;20203;-70
2023/12/15 09:15:16;;;;;;;8.57;7.88;;;;;;;6.36;83.04;95196.13;5096792;28;20240;-68
2023/12/15 09:17:45;;;;;;;9.80;9.00;;;;;;;6.38;82.66;95198.53;5079723;28;20200;-71
2023/12/15 09:20:13;;;;;;;10.43;9.52;;;;;;;6.40;83.16;95190.81;5079944;28;20204;-71
2023/12/15 09:22:40;;;;;;;10.63;9.82;;;;;;;6.39;82.91;95203.72;5097528;28;20201;-71
2023/12/15 09:25:08;;;;;;;10.23;9.43;;;;;;;6.44;82.61;95202.72;5097442;28;20184;-71
2023/12/15 09:27:35;;;;;;;10.55;9.75;;;;;;;6.44;82.80;95202.72;5079455;28;20207;-71
2023/12/15 09:30:02;;;;;;;9.98;9.18;;;;;;;6.43;82.52;95198.38;5078400;28;20628;-69
2023/12/15 09:32:29;;;;;;;10.20;9.30;;;;;;;6.41;83.13;95200.63;5080011;28;20211;-71
2023/12/15 09:34:57;;;;;;;11.30;10.40;;;;;;;6.41;82.89;95195.94;5079564;28;20205;-71
2023/12/15 09:37:24;;;;;;;18.23;16.60;;;;;;;6.42;82.98;95196.75;5097020;28;20219;-72
2023/12/15 09:39:51;;;;;;;14.20;12.98;;;;;;;6.42;83.00;95204.97;5097059;28;20196;-71
2023/12/15 09:42:18;;;;;;;11.60;10.60;;;;;;;6.45;82.97;95199.66;5097185;28;20204;-71
2023/12/15 09:44:45;;;;;;;11.43;10.52;;;;;;;6.48;83.47;95200.94;5096895;28;20185;-71
2023/12/15 09:47:13;;;;;;;10.40;9.50;;;;;;;6.50;83.13;95191.28;5096784;28;20191;-69
2023/12/15 09:49:41;;;;;;;10.15;9.38;;;;;;;6.51;83.22;95192.09;5079231;28;20210;-70
2023/12/15 09:52:09;;;;;;;9.40;8.70;;;;;;;6.51;82.69;95186.59;5079137;28;20200;-71
2023/12/15 09:54:36;;;;;;;9.15;8.40;;;;;;;6.50;82.82;95193.22;5078857;28;20253;-70
2023/12/15 09:57:03;;;;;;;9.98;9.18;;;;;;;6.50;82.98;95198.72;5096570;28;20227;-71
2023/12/15 09:59:31;;;;;;;9.48;8.68;;;;;;;6.47;82.56;95196.59;5096747;28;20207;-71
2023/12/15 10:01:58;;;;;;;9.48;8.77;;;;;;;6.45;83.10;95201.59;5096580;28;20200;-72
2023/12/15 10:04:25;;;;;;;9.07;8.35;;;;;;;6.47;83.31;95205.63;5077726;28;20204;-71
2023/12/15 10:06:52;;;;;;;9.00;8.30;;;;;;;6.49;83.41;95202.56;5078644;28;20215;-69
2023/12/15 10:09:21;;;;;;;10.07;9.20;;;;;;;6.48;83.10;95198.22;5096627;28;20188;-69
2023/12/15 10:11:48;;;;;;;9.95;9.15;;;;;;;6.48;83.30;95207.22;5079201;28;20216;-71
2023/12/15 10:14:19;;;;;;;9.40;8.70;;;;;;;6.48;83.77;95201.75;5094802;28;20196;-72
2023/12/15 10:16:50;;;;;;;9.68;8.88;;;;;;;6.48;84.45;95209.97;5096932;28;20220;-71
2023/12/15 10:19:19;;;;;;;10.07;9.27;;;;;;;6.49;84.19;95208.03;5078696;28;20531;-72
2023/12/15 10:21:48;;;;;;;10.10;9.20;;;;;;;6.51;84.61;95214.81;5074529;28;20208;-68
2023/12/15 10:24:22;;;;;;;10.27;9.48;;;;;;;6.53;84.62;95209.00;5095816;28;20192;-68
2023/12/15 10:26:52;;;;;;;10.65;9.63;;;;;;;6.54;84.35;95212.56;5095705;28;20180;-69
2023/12/15 10:29:19;;;;;;;10.80;9.90;;;;;;;6.49;83.98;95216.25;5095619;28;20646;-68
2023/12/15 10:31:49;;;;;;;10.75;9.85;;;;;;;6.47;84.27;95213.84;5095604;28;20176;-68
2023/12/15 10:34:16;;;;;;;11.05;10.07;;;;;;;6.51;83.77;95216.75;5096195;28;20581;-69
2023/12/15 10:36:47;;;;;;;11.40;10.50;;;;;;;6.47;83.79;95216.59;5095507;28;20184;-69
2023/12/15 10:39:14;;;;;;;11.85;10.88;;;;;;;6.50;84.22;95215.16;5096073;28;20192;-68
2023/12/15 10:41:46;;;;;;;11.75;10.75;;;;;;;6.54;85.22;95218.84;5078454;28;20211;-68
2023/12/15 10:44:13;;;;;;;12.13;11.02;;;;;;;6.55;84.97;95214.97;5095394;28;20636;-68
2023/12/15 10:46:42;;;;;;;13.02;11.93;;;;;;;6.58;84.98;95213.53;5095343;28;20588;-70
2023/12/15 10:49:13;;;;;;;11.63;10.63;;;;;;;6.56;84.62;95219.31;5095526;28;20261;-69
2023/12/15 10:51:42;;;;;;;11.65;10.52;;;;;;;6.54;84.26;95218.84;5078668;28;20188;-68
2023/12/15 10:54:12;;;;;;;11.18;10.27;;;;;;;6.54;84.47;95227.06;5095214;28;20199;-68
2023/12/15 10:56:40;;;;;;;10.75;9.85;;;;;;;6.48;84.54;95237.38;5095398;28;20546;-68
2023/12/15 10:59:09;;;;;;;10.75;9.88;;;;;;;6.47;84.72;95237.72;5078093;28;20193;-68
2023/12/15 11:01:37;;;;;;;11.45;10.55;;;;;;;6.47;84.63;95241.25;5078112;28;20249;-71
2023/12/15 11:04:17;;;;;;;12.48;11.48;;;;;;;6.45;84.95;95242.69;5095866;28;20216;-69
2023/12/15 11:06:44;;;;;;;10.70;9.80;;;;;;;6.45;84.49;95242.69;5095208;28;20188;-70
2023/12/15 11:09:11;;;;;;;10.82;9.93;;;;;;;6.48;84.05;95242.06;5095622;28;20182;-71
2023/12/15 11:11:38;;;;;;;13.05;11.90;;;;;;;6.45;83.81;95248.97;5095777;28;20211;-71
2023/12/15 11:14:05;;;;;;;16.73;15.38;;;;;;;6.43;83.75;95247.72;5094570;28;20200;-72
2023/12/15 11:16:39;;;;;;;17.90;16.50;;;;;;;6.43;83.69;95248.50;5074870;28;20203;-71
2023/12/15 11:19:06;;;;;;;20.17;18.48;;;;;;;6.43;84.08;95244.97;5078481;28;20189;-71
2023/12/15 11:21:33;;;;;;;21.60;19.80;;;;;;;6.42;84.37;95241.41;5078537;28;20228;-71
2023/12/15 11:24:04;;;;;;;24.40;22.30;;;;;;;6.43;84.55;95240.28;5079826;28;20216;-70
2023/12/15 11:26:32;;;;;;;22.73;20.73;;;;;;;6.45;84.63;95240.75;5062157;28;20200;-69
2023/12/15 11:29:04;;;;;;;22.02;20.23;;;;;;;6.48;84.60;95248.34;5061837;28;20197;-69
2023/12/15 11:31:34;;;;;;;15.50;14.20;;;;;;;6.51;84.85;95250.44;5061781;28;20209;-70
2023/12/15 11:34:01;;;;;;;16.60;14.88;;;;;;;6.51;84.54;95260.59;5079352;28;20254;-69
2023/12/15 11:36:30;;;;;;;15.27;13.88;;;;;;;6.46;85.29;95256.09;5061954;28;20215;-71
2023/12/15 11:38:58;;;;;;;18.35;16.75;;;;;;;6.45;85.04;95262.69;5079191;28;20268;-71
2023/12/15 11:41:25;;;;;;;14.00;12.65;;;;;;;6.46;85.07;95274.44;5078741;28;20181;-71